createdAt,value
2019-03-21T00:01:42.870Z,6.13
2019-03-21T00:05:48.597Z,5.97
2019-03-21T00:10:31.922Z,5.81
2019-03-21T00:15:34.282Z,6.29
2019-03-21T00:19:40.043Z,5.98
2019-03-21T00:23:45.875Z,5.87
2019-03-21T00:27:51.549Z,5.94
2019-03-21T00:31:57.255Z,6.14
2019-03-21T00:36:14.302Z,6.27
2019-03-21T00:40:26.005Z,5.61
2019-03-21T00:44:31.764Z,5.53
2019-03-21T00:48:37.706Z,5.25
2019-03-21T00:52:43.581Z,5.58
2019-03-21T00:56:51.119Z,5.62
2019-03-21T01:00:57.375Z,5.71
2019-03-21T01:05:03.093Z,5.53
2019-03-21T01:09:10.542Z,5.49
2019-03-21T01:13:16.472Z,5.25
2019-03-21T01:17:41.494Z,5.17
2019-03-21T01:22:07.638Z,5.52
2019-03-21T01:26:13.395Z,5.40
2019-03-21T01:30:19.192Z,5.26
2019-03-21T01:34:25.318Z,4.94
2019-03-21T01:38:31.075Z,5.27
2019-03-21T01:42:36.882Z,5.56
2019-03-21T01:46:42.644Z,5.11
2019-03-21T01:50:48.409Z,4.79
2019-03-21T01:54:54.267Z,4.91
2019-03-21T01:59:05.364Z,5.06
2019-03-21T02:03:10.997Z,5.19
2019-03-21T02:07:16.658Z,5.18
2019-03-21T02:11:22.532Z,4.96
2019-03-21T02:15:31.462Z,4.98
2019-03-21T02:19:37.766Z,4.80
2019-03-21T02:23:43.505Z,5.00
2019-03-21T02:27:49.200Z,4.89
2019-03-21T02:31:54.838Z,5.03
2019-03-21T02:36:00.589Z,5.03
2019-03-21T02:40:08.362Z,5.18
2019-03-21T02:44:14.207Z,4.79
2019-03-21T02:48:20.145Z,4.73
2019-03-21T02:52:25.792Z,4.59
2019-03-21T02:56:31.557Z,4.74
2019-03-21T03:00:37.228Z,4.78
2019-03-21T03:04:43.006Z,4.62
2019-03-21T03:08:49.105Z,4.43
2019-03-21T03:12:54.717Z,4.72
2019-03-21T03:17:06.522Z,3.94
2019-03-21T03:21:12.259Z,3.99
2019-03-21T03:25:18.011Z,4.18
2019-03-21T03:29:23.667Z,4.09
2019-03-21T03:33:29.442Z,4.30
2019-03-21T03:37:54.010Z,4.48
2019-03-21T03:41:59.631Z,4.57
2019-03-21T03:46:24.131Z,4.23
2019-03-21T03:50:40.822Z,4.36
2019-03-21T03:54:46.634Z,4.21
2019-03-21T03:58:53.066Z,4.00
2019-03-21T04:02:58.765Z,4.21
2019-03-21T04:07:23.586Z,3.92
2019-03-21T04:11:29.366Z,3.80
2019-03-21T04:15:51.228Z,3.83
2019-03-21T04:19:49.551Z,4.09
2019-03-21T04:23:55.183Z,4.11
2019-03-21T04:28:01.467Z,3.95
2019-03-21T04:32:07.126Z,4.07
2019-03-21T04:36:12.789Z,3.71
2019-03-21T04:40:21.458Z,3.96
2019-03-21T04:44:27.244Z,3.97
2019-03-21T04:52:49.762Z,4.05
2019-03-21T04:56:55.672Z,4.00
2019-03-21T05:01:03.560Z,4.10
2019-03-21T05:05:28.425Z,4.04
2019-03-21T05:09:34.153Z,3.94
2019-03-21T05:13:39.854Z,4.06
2019-03-21T05:17:46.475Z,4.04
2019-03-21T05:22:11.026Z,3.87
2019-03-21T05:26:35.486Z,3.93
2019-03-21T05:30:44.607Z,3.82
2019-03-21T05:34:50.336Z,3.82
2019-03-21T05:38:56.353Z,3.93
2019-03-21T05:43:22.690Z,3.97
2019-03-21T05:47:39.270Z,3.85
2019-03-21T05:51:45.045Z,3.86
2019-03-21T05:55:50.743Z,3.85
2019-03-21T05:59:56.475Z,4.02
2019-03-21T06:04:02.310Z,4.02
2019-03-21T06:08:28.451Z,4.00
2019-03-21T06:17:30.931Z,4.04
2019-03-21T06:22:09.390Z,4.14
2019-03-21T06:26:37.542Z,4.06
2019-03-21T06:35:44.665Z,4.96
2019-03-21T06:40:32.986Z,5.30
2019-03-21T06:44:40.420Z,5.61
2019-03-21T06:48:46.086Z,5.52
2019-03-21T06:52:51.808Z,5.61
2019-03-21T07:01:20.689Z,6.05
2019-03-21T07:05:40.711Z,5.96
2019-03-21T07:23:07.679Z,6.81
2019-03-21T07:27:32.616Z,6.91
2019-03-21T07:31:38.380Z,7.11
2019-03-21T07:35:44.073Z,7.45
2019-03-21T07:39:49.813Z,7.56
2019-03-21T07:43:55.629Z,7.75
2019-03-21T07:48:01.233Z,7.89
2019-03-21T07:52:06.878Z,8.04
2019-03-21T07:56:12.518Z,8.11
2019-03-21T08:00:33.925Z,8.58
2019-03-21T08:04:39.595Z,8.70
2019-03-21T08:08:45.377Z,8.97
2019-03-21T08:12:51.065Z,9.20
2019-03-21T08:16:59.893Z,9.36
2019-03-21T08:21:05.624Z,9.56
2019-03-21T08:25:11.351Z,9.89
2019-03-21T08:29:18.438Z,9.96
2019-03-21T08:33:24.148Z,10.09
2019-03-21T08:37:29.924Z,10.65
2019-03-21T08:41:35.692Z,11.00
2019-03-21T08:45:41.436Z,11.37
2019-03-21T08:49:53.248Z,11.62
2019-03-21T08:53:57.712Z,12.63
2019-03-21T08:58:03.542Z,13.40
2019-03-21T09:02:09.212Z,14.80
2019-03-21T09:06:15.628Z,14.45
2019-03-21T09:10:27.170Z,12.98
2019-03-21T09:14:32.961Z,14.70
2019-03-21T09:18:39.990Z,14.55
2019-03-21T09:22:45.740Z,14.21
2019-03-21T09:26:51.388Z,14.71
2019-03-21T09:30:59.574Z,14.81
2019-03-21T09:35:05.619Z,13.88
2019-03-21T09:39:11.321Z,14.99
2019-03-21T09:43:17.024Z,14.39
2019-03-21T09:47:23.136Z,14.40
2019-03-21T09:51:31.066Z,14.10
2019-03-21T09:55:45.839Z,14.97
2019-03-21T09:59:51.709Z,14.75
2019-03-21T10:03:57.785Z,14.70
2019-03-21T10:08:03.712Z,14.57
2019-03-21T10:12:09.325Z,15.88
2019-03-21T10:20:46.115Z,15.93
2019-03-21T10:24:51.848Z,15.51
2019-03-21T10:28:57.648Z,15.68
2019-03-21T10:33:03.785Z,16.31
2019-03-21T10:37:09.497Z,15.80
2019-03-21T10:41:15.237Z,16.28
2019-03-21T10:45:20.899Z,16.79
2019-03-21T10:49:26.595Z,17.11
2019-03-21T10:53:32.639Z,16.40
2019-03-21T10:57:38.413Z,16.63
2019-03-21T11:01:44.202Z,16.31
2019-03-21T11:05:49.945Z,17.17
2019-03-21T11:09:55.840Z,16.36
2019-03-21T11:14:01.555Z,17.67
2019-03-21T11:18:07.239Z,17.33
2019-03-21T11:22:13.061Z,17.81
2019-03-21T11:26:37.592Z,17.16
2019-03-21T11:30:44.639Z,17.16
2019-03-21T11:34:50.306Z,18.13
2019-03-21T11:38:58.093Z,17.69
2019-03-21T11:43:08.558Z,18.32
2019-03-21T11:47:14.290Z,18.61
2019-03-21T11:51:20.089Z,17.89
2019-03-21T11:55:28.077Z,19.23
2019-03-21T11:59:46.476Z,19.70
2019-03-21T12:03:47.204Z,18.02
2019-03-21T12:07:53.222Z,18.30
2019-03-21T12:11:58.924Z,17.97
2019-03-21T12:16:04.719Z,16.76
2019-03-21T12:20:10.653Z,18.70
2019-03-21T12:24:16.385Z,18.32
2019-03-21T12:28:24.285Z,18.63
2019-03-21T12:32:36.814Z,18.83
2019-03-21T12:36:42.452Z,18.27
2019-03-21T12:40:48.170Z,16.52
2019-03-21T12:44:53.786Z,18.05
2019-03-21T12:48:59.518Z,19.01
2019-03-21T12:53:05.391Z,19.04
2019-03-21T12:57:11.044Z,18.96
2019-03-21T13:01:16.746Z,19.11
2019-03-21T13:05:29.071Z,19.30
2019-03-21T13:09:34.717Z,20.00
2019-03-21T13:13:40.496Z,19.51
2019-03-21T13:17:46.223Z,19.18
2019-03-21T13:21:51.934Z,18.05
2019-03-21T13:25:57.673Z,20.08
2019-03-21T13:30:03.930Z,19.94
2019-03-21T13:34:10.447Z,20.34
2019-03-21T13:42:50.155Z,20.67
2019-03-21T13:46:55.844Z,19.88
2019-03-21T13:51:01.834Z,20.99
2019-03-21T13:59:26.692Z,20.55
2019-03-21T14:03:32.443Z,23.08
2019-03-21T14:07:38.301Z,21.42
2019-03-21T14:11:43.944Z,21.43
2019-03-21T14:16:00.491Z,22.69
2019-03-21T14:20:07.327Z,21.28
2019-03-21T14:24:13.084Z,22.17
2019-03-21T14:28:18.986Z,25.00
2019-03-21T14:32:24.939Z,22.84
2019-03-21T14:36:33.009Z,20.65
2019-03-21T14:40:39.275Z,20.65
2019-03-21T14:44:45.318Z,20.12
2019-03-21T14:48:51.625Z,21.65
2019-03-21T14:52:58.214Z,20.49
2019-03-21T14:57:03.988Z,21.53
2019-03-21T15:01:09.815Z,23.83
2019-03-21T15:05:26.247Z,22.84
2019-03-21T15:09:31.914Z,20.22
2019-03-21T15:13:37.642Z,20.55
2019-03-21T15:17:43.423Z,20.27
2019-03-21T15:21:49.111Z,20.06
2019-03-21T15:25:54.953Z,20.52
2019-03-21T15:30:01.106Z,20.30
2019-03-21T15:34:08.340Z,20.04
2019-03-21T15:38:14.019Z,19.68
2019-03-21T15:42:19.727Z,19.67
2019-03-21T15:46:25.409Z,21.07
2019-03-21T15:50:33.020Z,21.70
2019-03-21T15:54:38.762Z,20.45
2019-03-21T15:58:45.161Z,20.17
2019-03-21T16:02:50.955Z,19.67
2019-03-21T16:06:56.575Z,21.62
2019-03-21T16:11:02.220Z,21.61
2019-03-21T16:15:09.309Z,21.60
2019-03-21T16:19:15.016Z,21.26
2019-03-21T16:23:20.678Z,19.30
2019-03-21T16:27:26.322Z,19.62
2019-03-21T16:31:31.960Z,20.06
2019-03-21T16:35:37.646Z,19.67
2019-03-21T16:39:43.258Z,20.42
2019-03-21T16:43:48.886Z,20.07
2019-03-21T16:47:54.622Z,19.84
2019-03-21T16:52:00.389Z,22.28
2019-03-21T16:56:06.374Z,18.97
2019-03-21T17:00:51.430Z,20.12
2019-03-21T17:05:15.905Z,20.89
2019-03-21T17:09:21.639Z,18.70
2019-03-21T17:13:27.400Z,20.03
2019-03-21T17:17:33.122Z,19.13
2019-03-21T17:21:38.831Z,18.88
2019-03-21T17:25:44.570Z,18.35
2019-03-21T17:29:50.197Z,16.88
2019-03-21T17:33:55.863Z,16.97
2019-03-21T17:42:21.636Z,15.44
2019-03-21T17:46:27.370Z,15.33
2019-03-21T17:50:33.029Z,15.61
2019-03-21T17:54:41.817Z,14.93
2019-03-21T18:07:47.246Z,14.58
2019-03-21T18:11:52.921Z,15.10
2019-03-21T18:15:58.667Z,14.30
2019-03-21T18:20:24.914Z,14.69
2019-03-21T18:24:30.686Z,14.53
2019-03-21T18:28:36.332Z,14.84
2019-03-21T18:32:42.072Z,15.05
2019-03-21T18:36:47.812Z,14.50
2019-03-21T18:40:53.530Z,14.57
2019-03-21T18:49:16.659Z,14.19
2019-03-21T18:53:22.344Z,14.11
2019-03-21T18:57:28.081Z,14.45
2019-03-21T19:01:34.374Z,14.25
2019-03-21T19:05:58.951Z,13.71
2019-03-21T19:10:05.632Z,13.43
2019-03-21T19:14:11.402Z,13.48
2019-03-21T19:18:17.118Z,13.04
2019-03-21T19:22:22.822Z,12.87
2019-03-21T19:26:28.710Z,12.84
2019-03-21T19:30:34.449Z,12.87
2019-03-21T19:34:40.185Z,11.91
2019-03-21T19:38:45.814Z,11.98
2019-03-21T19:47:29.858Z,11.51
2019-03-21T19:51:36.121Z,11.95
2019-03-21T19:55:41.868Z,11.64
2019-03-21T19:59:47.660Z,11.37
2019-03-21T20:03:53.332Z,10.85
2019-03-21T20:07:59.111Z,10.27
2019-03-21T20:12:05.008Z,10.36
2019-03-21T20:16:10.938Z,10.26
2019-03-21T20:20:17.080Z,10.94
2019-03-21T20:24:24.366Z,10.77
2019-03-21T20:28:30.192Z,10.53
2019-03-21T20:32:35.955Z,10.55
2019-03-21T20:36:41.679Z,10.88
2019-03-21T20:40:47.496Z,10.58
2019-03-21T20:44:53.192Z,10.98
2019-03-21T20:48:56.714Z,10.87
2019-03-21T20:53:02.610Z,10.34
2019-03-21T20:57:08.431Z,10.18
2019-03-21T21:01:14.264Z,10.21
2019-03-21T21:05:22.799Z,10.91
2019-03-21T21:09:32.764Z,10.81
2019-03-21T21:13:38.481Z,10.74
2019-03-21T21:17:44.231Z,10.80
2019-03-21T21:26:19.926Z,10.29
2019-03-21T21:30:38.040Z,10.23
2019-03-21T21:34:38.624Z,10.42
2019-03-21T21:38:44.379Z,9.63
2019-03-21T21:42:50.141Z,9.99
2019-03-21T21:51:12.974Z,10.11
2019-03-21T21:59:57.651Z,8.86
2019-03-21T22:04:05.011Z,8.96
2019-03-21T22:08:16.250Z,8.20
2019-03-21T22:12:21.887Z,8.26
2019-03-21T22:16:28.084Z,8.19
2019-03-21T22:20:33.722Z,8.05
2019-03-21T22:24:39.412Z,8.05
2019-03-21T22:28:45.108Z,8.22
2019-03-21T22:32:50.716Z,8.32
2019-03-21T22:36:56.487Z,8.14
2019-03-21T22:41:03.884Z,8.52
2019-03-21T22:49:47.630Z,8.70
2019-03-21T22:53:53.410Z,8.35
2019-03-21T22:57:59.289Z,8.09
2019-03-21T23:06:21.613Z,8.07
2019-03-21T23:10:27.285Z,7.91
2019-03-21T23:14:33.005Z,7.84
2019-03-21T23:18:38.649Z,7.73
2019-03-21T23:22:44.581Z,7.50
2019-03-21T23:26:53.153Z,7.08
2019-03-21T23:31:16.716Z,6.93
2019-03-21T23:35:41.219Z,7.07
2019-03-21T23:39:46.883Z,6.88
2019-03-21T23:43:52.617Z,6.93
2019-03-21T23:48:09.358Z,6.64
2019-03-21T23:52:15.034Z,6.64
2019-03-21T23:56:20.684Z,6.69
